createdAt,value
2017-11-15T00:02:05.683Z,3.37
2017-11-15T00:04:40.094Z,3.43
2017-11-15T00:07:14.528Z,3.45
2017-11-15T00:09:49.057Z,3.38
2017-11-15T00:12:23.491Z,3.23
2017-11-15T00:14:58.157Z,3.24
2017-11-15T00:17:32.615Z,3.19
2017-11-15T00:20:14.829Z,3.21
2017-11-15T00:22:49.567Z,3.23
2017-11-15T00:25:23.986Z,3.39
2017-11-15T00:27:58.487Z,3.39
2017-11-15T00:30:32.921Z,3.52
2017-11-15T00:33:07.218Z,3.33
2017-11-15T00:35:42.055Z,3.39
2017-11-15T00:38:16.471Z,3.30
2017-11-15T00:40:50.974Z,3.24
2017-11-15T00:43:25.463Z,3.31
2017-11-15T00:45:59.912Z,3.33
2017-11-15T00:48:34.419Z,3.26
2017-11-15T00:51:08.803Z,3.27
2017-11-15T00:53:43.385Z,3.18
2017-11-15T00:56:17.813Z,3.16
2017-11-15T00:58:52.111Z,2.92
2017-11-15T01:01:26.618Z,2.85
2017-11-15T01:04:01.180Z,2.80
2017-11-15T01:06:35.936Z,2.76
2017-11-15T01:09:10.479Z,2.73
2017-11-15T01:11:44.910Z,2.81
2017-11-15T01:14:19.540Z,2.88
2017-11-15T01:16:54.159Z,2.95
2017-11-15T01:19:28.555Z,3.01
2017-11-15T01:22:02.934Z,3.13
2017-11-15T01:24:37.734Z,3.07
2017-11-15T01:27:12.153Z,3.23
2017-11-15T01:29:46.594Z,3.08
2017-11-15T01:32:20.955Z,2.71
2017-11-15T01:34:55.410Z,2.63
2017-11-15T01:37:29.829Z,2.50
2017-11-15T01:40:04.159Z,2.47
2017-11-15T01:42:38.878Z,2.42
2017-11-15T01:45:15.533Z,2.37
2017-11-15T01:47:49.701Z,2.34
2017-11-15T01:50:24.176Z,2.27
2017-11-15T01:52:58.609Z,2.20
2017-11-15T01:55:32.991Z,2.13
2017-11-15T01:58:07.487Z,2.09
2017-11-15T02:00:53.134Z,2.05
2017-11-15T02:03:27.808Z,1.92
2017-11-15T02:06:02.489Z,2.02
2017-11-15T02:08:37.144Z,2.03
2017-11-15T02:11:11.617Z,1.99
2017-11-15T02:13:46.157Z,1.91
2017-11-15T02:16:20.649Z,2.02
2017-11-15T02:18:54.971Z,1.96
2017-11-15T02:21:29.543Z,1.91
2017-11-15T02:24:03.827Z,1.93
2017-11-15T02:29:36.495Z,1.83
2017-11-15T02:32:10.526Z,1.84
2017-11-15T02:34:44.859Z,1.85
2017-11-15T02:37:19.293Z,1.87
2017-11-15T02:39:53.390Z,1.84
2017-11-15T02:42:27.451Z,1.78
2017-11-15T02:45:01.667Z,1.72
2017-11-15T02:47:36.502Z,1.70
2017-11-15T02:50:15.391Z,1.68
2017-11-15T02:52:49.586Z,1.67
2017-11-15T02:55:24.212Z,1.67
2017-11-15T02:57:58.767Z,1.64
2017-11-15T03:00:32.870Z,1.65
2017-11-15T03:03:07.375Z,1.61
2017-11-15T03:05:41.470Z,1.58
2017-11-15T03:08:15.827Z,1.51
2017-11-15T03:10:51.021Z,1.43
2017-11-15T03:13:25.817Z,1.40
2017-11-15T03:16:00.182Z,1.36
2017-11-15T03:18:34.600Z,1.37
2017-11-15T03:21:14.313Z,1.36
2017-11-15T03:23:48.861Z,1.41
2017-11-15T03:26:22.993Z,1.47
2017-11-15T03:28:57.403Z,1.45
2017-11-15T03:31:31.769Z,1.42
2017-11-15T03:34:06.919Z,1.40
2017-11-15T03:36:41.537Z,1.44
2017-11-15T03:39:16.304Z,1.40
2017-11-15T03:41:50.697Z,1.43
2017-11-15T03:44:25.062Z,1.42
2017-11-15T03:46:59.470Z,1.45
2017-11-15T03:49:34.008Z,1.47
2017-11-15T03:52:08.384Z,1.50
2017-11-15T03:54:42.755Z,1.51
2017-11-15T03:57:17.232Z,1.51
2017-11-15T03:59:51.903Z,1.53
2017-11-15T04:02:26.286Z,1.50
2017-11-15T04:05:00.804Z,1.42
2017-11-15T04:07:35.509Z,1.36
2017-11-15T04:10:14.983Z,1.40
2017-11-15T04:12:49.493Z,1.41
2017-11-15T04:15:24.052Z,1.44
2017-11-15T04:17:58.679Z,1.41
2017-11-15T04:20:33.127Z,1.42
2017-11-15T04:23:07.518Z,1.49
2017-11-15T04:25:42.147Z,1.56
2017-11-15T04:28:16.566Z,1.61
2017-11-15T04:30:51.106Z,1.66
2017-11-15T04:33:25.571Z,1.64
2017-11-15T04:36:00.223Z,1.67
2017-11-15T04:38:34.723Z,1.64
2017-11-15T04:41:10.216Z,1.67
2017-11-15T04:43:44.727Z,1.68
2017-11-15T04:46:19.211Z,1.63
2017-11-15T04:48:53.913Z,1.60
2017-11-15T04:51:28.387Z,1.63
2017-11-15T04:54:02.811Z,1.68
2017-11-15T04:56:37.234Z,1.59
2017-11-15T04:59:11.397Z,1.63
2017-11-15T05:01:45.878Z,1.63
2017-11-15T05:04:20.403Z,1.66
2017-11-15T05:06:54.771Z,1.62
2017-11-15T05:09:29.259Z,1.53
2017-11-15T05:12:03.731Z,1.48
2017-11-15T05:14:38.267Z,1.44
2017-11-15T05:17:12.739Z,1.47
2017-11-15T05:19:47.261Z,1.42
2017-11-15T05:22:21.843Z,1.52
2017-11-15T05:24:56.298Z,1.58
2017-11-15T05:27:31.126Z,1.62
2017-11-15T05:30:15.048Z,1.68
2017-11-15T05:32:50.535Z,1.63
2017-11-15T05:35:25.021Z,1.60
2017-11-15T05:37:59.555Z,1.61
2017-11-15T05:40:34.181Z,1.63
2017-11-15T05:43:08.535Z,1.61
2017-11-15T05:45:42.972Z,1.61
2017-11-15T05:48:17.151Z,1.63
2017-11-15T05:50:51.551Z,1.58
2017-11-15T05:53:25.907Z,1.47
2017-11-15T05:56:00.419Z,1.44
2017-11-15T05:58:34.892Z,1.45
2017-11-15T06:01:09.359Z,1.44
2017-11-15T06:03:43.957Z,1.41
2017-11-15T06:06:18.338Z,1.44
2017-11-15T06:08:52.945Z,1.41
2017-11-15T06:11:27.398Z,1.36
2017-11-15T06:14:02.010Z,1.34
2017-11-15T06:16:37.800Z,1.34
2017-11-15T06:19:13.650Z,1.37
2017-11-15T06:21:49.029Z,1.38
2017-11-15T06:24:23.785Z,1.41
2017-11-15T06:26:58.562Z,1.37
2017-11-15T06:29:33.176Z,1.36
2017-11-15T06:32:07.836Z,1.35
2017-11-15T06:34:43.080Z,1.40
2017-11-15T06:37:17.760Z,1.48
2017-11-15T06:39:52.545Z,1.52
2017-11-15T06:42:27.284Z,1.56
2017-11-15T06:45:01.860Z,1.61
2017-11-15T06:47:38.536Z,1.52
2017-11-15T06:50:16.138Z,1.76
2017-11-15T06:52:50.694Z,1.85
2017-11-15T06:55:25.099Z,1.76
2017-11-15T06:58:00.317Z,1.87
2017-11-15T07:00:34.720Z,1.89
2017-11-15T07:03:09.076Z,1.74
2017-11-15T07:05:43.545Z,1.87
2017-11-15T07:08:18.265Z,1.93
2017-11-15T07:10:52.651Z,1.94
2017-11-15T07:13:27.269Z,1.99
2017-11-15T07:16:02.077Z,2.02
2017-11-15T07:18:36.740Z,2.12
2017-11-15T07:21:11.315Z,2.19
2017-11-15T07:23:45.892Z,2.29
2017-11-15T07:26:20.368Z,2.38
2017-11-15T07:28:54.731Z,2.38
2017-11-15T07:31:29.126Z,2.49
2017-11-15T07:34:03.662Z,2.59
2017-11-15T07:36:38.075Z,2.67
2017-11-15T07:39:12.496Z,2.82
2017-11-15T07:41:46.956Z,2.92
2017-11-15T07:44:21.504Z,2.98
2017-11-15T07:46:55.927Z,3.06
2017-11-15T07:49:30.559Z,3.17
2017-11-15T07:52:05.898Z,3.19
2017-11-15T07:54:40.470Z,3.32
2017-11-15T07:57:14.564Z,3.44
2017-11-15T07:59:49.039Z,3.46
2017-11-15T08:02:23.507Z,3.45
2017-11-15T08:04:58.118Z,3.45
2017-11-15T08:07:32.469Z,3.60
2017-11-15T08:10:06.966Z,3.16
2017-11-15T08:12:41.490Z,3.81
2017-11-15T08:15:15.875Z,3.83
2017-11-15T08:17:50.396Z,3.93
2017-11-15T08:20:24.736Z,3.94
2017-11-15T08:22:59.295Z,3.98
2017-11-15T08:25:33.752Z,4.03
2017-11-15T08:28:08.914Z,4.12
2017-11-15T08:30:43.478Z,4.17
2017-11-15T08:33:18.200Z,4.30
2017-11-15T08:35:52.731Z,4.39
2017-11-15T08:38:28.044Z,4.22
2017-11-15T08:41:02.608Z,4.52
2017-11-15T08:43:37.101Z,4.65
2017-11-15T08:46:11.548Z,4.61
2017-11-15T08:48:46.051Z,4.73
2017-11-15T08:51:20.504Z,4.79
2017-11-15T08:53:55.878Z,4.69
2017-11-15T08:56:30.368Z,4.88
2017-11-15T08:59:04.912Z,4.87
2017-11-15T09:01:39.695Z,5.01
2017-11-15T09:04:14.208Z,5.04
2017-11-15T09:06:49.233Z,5.06
2017-11-15T09:09:24.023Z,5.07
2017-11-15T09:11:58.544Z,5.26
2017-11-15T09:14:33.099Z,5.31
2017-11-15T09:17:07.583Z,5.39
2017-11-15T09:19:42.009Z,5.18
2017-11-15T09:22:16.463Z,5.20
2017-11-15T09:24:51.017Z,5.28
2017-11-15T09:27:25.809Z,5.24
2017-11-15T09:30:02.835Z,5.18
2017-11-15T09:32:37.212Z,5.34
2017-11-15T09:35:11.578Z,5.41
2017-11-15T09:37:46.180Z,5.62
2017-11-15T09:40:20.548Z,6.05
2017-11-15T09:42:55.830Z,7.13
2017-11-15T09:45:30.397Z,8.07
2017-11-15T09:48:04.975Z,8.56
2017-11-15T09:50:39.309Z,9.03
2017-11-15T09:53:13.825Z,9.85
2017-11-15T09:55:48.340Z,10.11
2017-11-15T09:58:22.871Z,10.28
2017-11-15T10:00:57.284Z,10.53
2017-11-15T10:03:31.832Z,10.74
2017-11-15T10:06:06.324Z,11.06
2017-11-15T10:08:41.701Z,11.06
2017-11-15T10:11:15.921Z,10.97
2017-11-15T10:13:50.476Z,11.60
2017-11-15T10:16:24.929Z,10.99
2017-11-15T10:18:59.561Z,10.70
2017-11-15T10:21:34.607Z,10.80
2017-11-15T10:24:09.966Z,10.70
2017-11-15T10:26:44.489Z,11.18
2017-11-15T10:29:18.855Z,11.13
2017-11-15T10:31:53.378Z,10.27
2017-11-15T10:34:27.931Z,10.38
2017-11-15T10:37:03.264Z,9.81
2017-11-15T10:39:37.788Z,9.29
2017-11-15T10:42:12.212Z,8.64
2017-11-15T10:44:46.715Z,8.57
2017-11-15T10:47:21.582Z,8.56
2017-11-15T10:49:55.967Z,8.25
2017-11-15T10:52:30.444Z,8.06
2017-11-15T10:55:05.938Z,7.99
2017-11-15T10:57:40.522Z,8.05
2017-11-15T11:00:14.813Z,7.48
2017-11-15T11:02:49.321Z,7.96
2017-11-15T11:05:25.833Z,7.85
2017-11-15T11:08:00.200Z,7.82
2017-11-15T11:10:34.680Z,7.73
2017-11-15T11:13:09.322Z,7.82
2017-11-15T11:15:43.815Z,7.91
2017-11-15T11:18:18.323Z,8.10
2017-11-15T11:20:52.696Z,7.94
2017-11-15T11:23:27.288Z,7.94
2017-11-15T11:26:01.756Z,8.19
2017-11-15T11:28:36.176Z,8.43
2017-11-15T11:31:10.663Z,8.24
2017-11-15T11:33:44.949Z,8.16
2017-11-15T11:36:19.348Z,8.28
2017-11-15T11:38:53.916Z,8.19
2017-11-15T11:41:28.439Z,8.27
2017-11-15T11:44:02.247Z,8.32
2017-11-15T11:46:37.017Z,8.32
2017-11-15T11:49:11.584Z,8.35
2017-11-15T11:51:46.063Z,8.63
2017-11-15T11:54:20.388Z,8.76
2017-11-15T11:56:54.892Z,8.74
2017-11-15T11:59:29.347Z,8.93
2017-11-15T12:02:04.613Z,9.14
2017-11-15T12:04:39.221Z,9.37
2017-11-15T12:07:13.810Z,9.12
2017-11-15T12:09:48.207Z,9.31
2017-11-15T12:12:22.692Z,9.24
2017-11-15T12:14:57.097Z,9.47
2017-11-15T12:17:31.492Z,9.20
2017-11-15T12:20:14.407Z,9.40
2017-11-15T12:22:48.784Z,8.85
2017-11-15T12:25:23.208Z,9.04
2017-11-15T12:27:57.759Z,9.18
2017-11-15T12:30:32.208Z,8.89
2017-11-15T12:33:06.794Z,8.69
2017-11-15T12:35:42.066Z,8.90
2017-11-15T12:38:16.608Z,9.05
2017-11-15T12:40:51.037Z,9.36
2017-11-15T12:43:25.528Z,9.35
2017-11-15T12:46:00.044Z,8.72
2017-11-15T12:48:34.531Z,8.86
2017-11-15T12:51:08.904Z,8.73
2017-11-15T12:53:43.283Z,9.08
2017-11-15T12:56:17.390Z,8.83
2017-11-15T12:58:52.260Z,9.09
2017-11-15T13:01:26.683Z,8.92
2017-11-15T13:04:01.331Z,9.19
2017-11-15T13:06:35.703Z,9.18
2017-11-15T13:09:10.254Z,9.00
2017-11-15T13:11:44.711Z,8.92
2017-11-15T13:14:19.259Z,9.01
2017-11-15T13:16:53.446Z,8.87
2017-11-15T13:19:29.016Z,9.08
2017-11-15T13:22:03.570Z,8.94
2017-11-15T13:24:37.861Z,8.66
2017-11-15T13:27:12.320Z,8.68
2017-11-15T13:29:46.871Z,8.62
2017-11-15T13:32:21.455Z,8.40
2017-11-15T13:34:56.085Z,8.52
2017-11-15T13:37:31.392Z,8.61
2017-11-15T13:40:14.926Z,8.66
2017-11-15T13:42:49.457Z,8.80
2017-11-15T13:45:23.916Z,8.86
2017-11-15T13:47:58.382Z,8.89
2017-11-15T13:50:33.871Z,8.95
2017-11-15T13:53:08.367Z,8.82
2017-11-15T13:55:42.744Z,8.81
2017-11-15T13:58:17.168Z,8.93
2017-11-15T14:00:51.639Z,8.96
2017-11-15T14:03:26.083Z,8.90
2017-11-15T14:06:00.792Z,8.80
2017-11-15T14:08:35.467Z,8.75
2017-11-15T14:11:09.936Z,8.60
2017-11-15T14:13:44.374Z,8.55
2017-11-15T14:16:18.754Z,8.64
2017-11-15T14:18:53.915Z,8.63
2017-11-15T14:21:28.496Z,8.55
2017-11-15T14:24:02.980Z,8.62
2017-11-15T14:26:37.489Z,8.55
2017-11-15T14:29:17.849Z,8.57
2017-11-15T14:31:52.396Z,8.53
2017-11-15T14:34:27.011Z,8.39
2017-11-15T14:37:02.036Z,8.23
2017-11-15T14:39:36.553Z,8.21
2017-11-15T14:42:10.947Z,8.18
2017-11-15T14:44:45.276Z,8.28
2017-11-15T14:47:19.707Z,8.21
2017-11-15T14:49:54.937Z,8.17
2017-11-15T14:52:29.597Z,8.11
2017-11-15T14:57:45.512Z,8.02
2017-11-15T15:00:19.919Z,7.99
2017-11-15T15:02:54.464Z,7.89
2017-11-15T15:05:28.920Z,7.82
2017-11-15T15:08:04.598Z,7.68
2017-11-15T15:10:39.078Z,7.63
2017-11-15T15:13:13.642Z,7.56
2017-11-15T15:15:48.058Z,7.53
2017-11-15T15:18:22.598Z,7.48
2017-11-15T15:20:56.981Z,7.48
2017-11-15T15:23:31.500Z,7.40
2017-11-15T15:26:08.329Z,7.40
2017-11-15T15:28:45.207Z,7.35
2017-11-15T15:31:19.860Z,7.33
2017-11-15T15:33:54.605Z,7.34
2017-11-15T15:36:29.067Z,7.37
2017-11-15T15:39:03.599Z,7.34
2017-11-15T15:41:37.995Z,7.33
2017-11-15T15:44:12.505Z,7.31
2017-11-15T15:46:47.371Z,7.24
2017-11-15T15:49:21.905Z,7.18
2017-11-15T15:51:56.632Z,7.07
2017-11-15T15:54:31.108Z,6.96
2017-11-15T15:57:05.574Z,6.94
2017-11-15T15:59:40.072Z,6.73
2017-11-15T16:02:14.632Z,6.66
2017-11-15T16:04:49.242Z,6.59
2017-11-15T16:07:24.027Z,6.54
2017-11-15T16:09:58.426Z,6.48
2017-11-15T16:12:33.247Z,6.29
2017-11-15T16:15:13.559Z,6.42
2017-11-15T16:17:48.069Z,6.27
2017-11-15T16:20:22.514Z,6.16
2017-11-15T16:22:57.614Z,6.07
2017-11-15T16:25:32.102Z,6.05
2017-11-15T16:28:06.652Z,5.98
2017-11-15T16:30:41.073Z,5.98
2017-11-15T16:33:15.567Z,5.95
2017-11-15T16:35:50.044Z,5.88
2017-11-15T16:38:24.436Z,5.92
2017-11-15T16:40:58.931Z,5.94
2017-11-15T16:43:33.413Z,5.86
2017-11-15T16:46:07.820Z,5.81
2017-11-15T16:48:42.354Z,5.77
2017-11-15T16:51:18.446Z,5.71
2017-11-15T16:53:53.768Z,5.61
2017-11-15T16:56:28.254Z,5.60
2017-11-15T16:59:02.731Z,5.58
2017-11-15T17:01:37.180Z,5.55
2017-11-15T17:04:11.575Z,5.57
2017-11-15T17:06:45.924Z,5.44
2017-11-15T17:09:20.498Z,5.61
2017-11-15T17:11:54.976Z,5.59
2017-11-15T17:14:29.491Z,5.64
2017-11-15T17:17:03.879Z,5.53
2017-11-15T17:19:38.471Z,5.84
2017-11-15T17:22:12.908Z,5.66
2017-11-15T17:24:47.515Z,5.73
2017-11-15T17:27:21.932Z,5.58
2017-11-15T17:29:56.414Z,5.62
2017-11-15T17:32:30.798Z,5.76
2017-11-15T17:35:16.314Z,5.62
2017-11-15T17:37:50.803Z,5.68
2017-11-15T17:40:25.245Z,5.69
2017-11-15T17:42:59.811Z,5.51
2017-11-15T17:45:33.855Z,5.55
2017-11-15T17:48:08.026Z,5.71
2017-11-15T17:50:42.220Z,5.73
2017-11-15T17:53:16.657Z,5.76
2017-11-15T17:55:51.146Z,5.62
2017-11-15T17:58:25.592Z,5.44
2017-11-15T18:00:59.814Z,5.26
2017-11-15T18:03:34.379Z,5.01
2017-11-15T18:06:08.794Z,4.82
2017-11-15T18:08:43.370Z,4.72
2017-11-15T18:11:18.800Z,4.65
2017-11-15T18:13:53.403Z,4.62
2017-11-15T18:16:28.018Z,4.51
2017-11-15T18:19:02.575Z,4.41
2017-11-15T18:21:37.024Z,4.39
2017-11-15T18:24:11.464Z,4.35
2017-11-15T18:26:45.865Z,4.34
2017-11-15T18:29:20.549Z,4.39
2017-11-15T18:31:55.113Z,4.36
2017-11-15T18:34:29.609Z,4.45
2017-11-15T18:37:03.998Z,4.40
2017-11-15T18:39:38.543Z,4.14
2017-11-15T18:42:12.895Z,4.10
2017-11-15T18:44:47.138Z,4.20
2017-11-15T18:47:21.551Z,4.04
2017-11-15T18:49:56.081Z,4.16
2017-11-15T18:52:30.443Z,4.13
2017-11-15T18:55:14.055Z,4.06
2017-11-15T18:57:48.558Z,4.34
2017-11-15T19:00:23.311Z,4.31
2017-11-15T19:02:57.679Z,4.42
2017-11-15T19:05:32.267Z,4.50
2017-11-15T19:08:06.666Z,4.64
2017-11-15T19:10:41.107Z,4.46
2017-11-15T19:13:15.563Z,4.37
2017-11-15T19:15:50.009Z,4.27
2017-11-15T19:18:24.799Z,4.42
2017-11-15T19:20:59.831Z,4.37
2017-11-15T19:23:34.210Z,4.24
2017-11-15T19:26:08.615Z,4.22
2017-11-15T19:28:43.047Z,4.13
2017-11-15T19:31:17.484Z,3.95
2017-11-15T19:33:52.057Z,3.84
2017-11-15T19:36:27.144Z,3.78
2017-11-15T19:39:01.571Z,3.58
2017-11-15T19:41:36.437Z,3.44
2017-11-15T19:44:11.357Z,3.19
2017-11-15T19:46:45.797Z,3.07
2017-11-15T19:49:20.203Z,2.89
2017-11-15T19:51:54.611Z,2.84
2017-11-15T19:54:29.852Z,2.78
2017-11-15T19:57:04.351Z,2.82
2017-11-15T19:59:38.863Z,2.75
2017-11-15T20:02:13.968Z,2.64
2017-11-15T20:04:48.332Z,2.53
2017-11-15T20:07:22.734Z,2.43
2017-11-15T20:09:57.138Z,2.38
2017-11-15T20:12:31.668Z,2.38
2017-11-15T20:15:14.338Z,2.08
2017-11-15T20:17:48.823Z,2.31
2017-11-15T20:20:23.290Z,2.30
2017-11-15T20:22:57.842Z,2.28
2017-11-15T20:25:32.270Z,2.29
2017-11-15T20:28:06.690Z,2.28
2017-11-15T20:30:41.141Z,2.20
2017-11-15T20:33:16.506Z,2.16
2017-11-15T20:35:50.944Z,2.20
2017-11-15T20:38:25.432Z,2.34
2017-11-15T20:41:00.430Z,2.35
2017-11-15T20:43:35.949Z,2.34
2017-11-15T20:46:11.492Z,2.33
2017-11-15T20:48:45.852Z,2.23
2017-11-15T20:51:20.289Z,2.22
2017-11-15T20:53:54.815Z,2.21
2017-11-15T20:56:29.251Z,2.17
2017-11-15T20:59:03.824Z,2.13
2017-11-15T21:01:38.261Z,2.07
2017-11-15T21:04:12.135Z,2.01
2017-11-15T21:06:46.499Z,2.02
2017-11-15T21:09:21.006Z,2.09
2017-11-15T21:11:55.433Z,2.16
2017-11-15T21:14:29.844Z,2.15
2017-11-15T21:17:04.264Z,2.25
2017-11-15T21:19:39.188Z,2.50
2017-11-15T21:22:13.647Z,2.55
2017-11-15T21:24:48.032Z,2.66
2017-11-15T21:27:24.114Z,2.46
2017-11-15T21:29:58.623Z,2.64
2017-11-15T21:32:33.659Z,2.72
2017-11-15T21:35:13.847Z,2.78
2017-11-15T21:37:48.263Z,2.73
2017-11-15T21:40:22.896Z,2.76
2017-11-15T21:42:57.484Z,2.79
2017-11-15T21:45:31.864Z,2.69
2017-11-15T21:48:06.297Z,2.54
2017-11-15T21:50:41.131Z,2.52
2017-11-15T21:53:15.656Z,2.75
2017-11-15T21:55:50.036Z,2.68
2017-11-15T21:58:24.550Z,2.53
2017-11-15T22:00:59.449Z,2.45
2017-11-15T22:03:33.878Z,2.38
2017-11-15T22:06:09.998Z,2.33
2017-11-15T22:08:44.556Z,2.34
2017-11-15T22:11:19.835Z,2.28
2017-11-15T22:13:54.392Z,2.22
2017-11-15T22:16:28.782Z,2.17
2017-11-15T22:19:03.299Z,2.22
2017-11-15T22:21:37.739Z,2.23
2017-11-15T22:24:12.003Z,2.35
2017-11-15T22:26:46.389Z,2.40
2017-11-15T22:29:20.805Z,2.28
2017-11-15T22:31:55.576Z,2.18
2017-11-15T22:34:30.103Z,2.38
2017-11-15T22:37:05.068Z,2.46
2017-11-15T22:39:39.647Z,2.41
2017-11-15T22:42:14.033Z,2.26
2017-11-15T22:44:49.303Z,2.16
2017-11-15T22:47:24.511Z,2.53
2017-11-15T22:49:58.965Z,2.44
2017-11-15T22:52:33.368Z,2.38
2017-11-15T22:55:14.165Z,2.27
2017-11-15T22:57:48.310Z,2.56
2017-11-15T23:00:23.514Z,2.79
2017-11-15T23:02:58.156Z,2.64
2017-11-15T23:05:32.628Z,2.69
2017-11-15T23:08:07.123Z,2.49
2017-11-15T23:10:41.571Z,2.26
2017-11-15T23:13:16.738Z,2.03
2017-11-15T23:15:51.577Z,2.08
2017-11-15T23:18:25.955Z,1.70
2017-11-15T23:21:00.455Z,1.48
2017-11-15T23:23:35.054Z,1.38
2017-11-15T23:26:09.497Z,1.30
2017-11-15T23:28:45.011Z,1.26
2017-11-15T23:31:21.004Z,1.24
2017-11-15T23:33:55.656Z,1.06
2017-11-15T23:36:30.424Z,0.86
2017-11-15T23:39:06.650Z,0.97
2017-11-15T23:41:41.096Z,1.05
2017-11-15T23:44:15.523Z,1.24
2017-11-15T23:46:51.428Z,1.33
2017-11-15T23:49:25.932Z,1.40
2017-11-15T23:52:00.783Z,1.51
2017-11-15T23:54:35.208Z,1.41
2017-11-15T23:57:09.593Z,1.62
2017-11-15T23:59:43.712Z,1.78
